createdAt,value
2019-01-17T00:01:33.809Z,11.18
2019-01-17T00:04:20.726Z,12.70
2019-01-17T00:07:07.666Z,11.43
2019-01-17T00:09:54.684Z,13.10
2019-01-17T00:12:41.803Z,12.00
2019-01-17T00:15:28.869Z,13.40
2019-01-17T00:18:15.825Z,11.97
2019-01-17T00:21:02.749Z,9.73
2019-01-17T00:23:49.733Z,11.90
2019-01-17T00:26:36.671Z,8.23
2019-01-17T00:29:23.565Z,8.77
2019-01-17T00:32:10.501Z,10.40
2019-01-17T00:34:57.486Z,10.47
2019-01-17T00:37:44.539Z,10.50
2019-01-17T00:40:31.566Z,8.60
2019-01-17T00:43:18.586Z,9.20
2019-01-17T00:46:05.579Z,8.33
2019-01-17T00:48:52.458Z,8.50
2019-01-17T00:51:39.420Z,7.20
2019-01-17T00:54:26.373Z,8.77
2019-01-17T00:57:13.333Z,8.73
2019-01-17T01:00:00.224Z,8.90
2019-01-17T01:02:47.241Z,8.30
2019-01-17T01:05:34.158Z,8.13
2019-01-17T01:08:21.069Z,8.13
2019-01-17T01:11:08.117Z,8.07
2019-01-17T01:13:55.076Z,8.20
2019-01-17T01:16:44.004Z,8.63
2019-01-17T01:19:30.981Z,9.20
2019-01-17T01:22:17.873Z,8.57
2019-01-17T01:25:04.829Z,16.23
2019-01-17T01:27:51.826Z,16.63
2019-01-17T01:30:38.821Z,15.27
2019-01-17T01:33:25.714Z,15.90
2019-01-17T01:36:12.748Z,12.47
2019-01-17T01:38:59.786Z,12.40
2019-01-17T01:41:46.675Z,13.97
2019-01-17T01:44:33.625Z,13.00
2019-01-17T01:47:20.932Z,14.50
2019-01-17T01:50:07.809Z,16.67
2019-01-17T01:52:54.774Z,16.40
2019-01-17T01:55:41.713Z,16.00
2019-01-17T01:58:09.704Z,10.07
2019-01-17T02:00:37.684Z,10.93
2019-01-17T02:03:05.599Z,11.90
2019-01-17T02:05:33.864Z,11.57
2019-01-17T02:08:01.775Z,13.53
2019-01-17T02:10:29.714Z,8.90
2019-01-17T02:12:57.802Z,7.93
2019-01-17T02:15:25.772Z,7.90
2019-01-17T02:17:53.721Z,7.60
2019-01-17T02:20:21.692Z,8.03
2019-01-17T02:22:49.692Z,8.57
2019-01-17T02:25:17.629Z,8.13
2019-01-17T02:27:45.615Z,9.03
2019-01-17T02:30:14.017Z,12.97
2019-01-17T02:32:41.987Z,16.37
2019-01-17T02:35:09.914Z,15.60
2019-01-17T02:37:37.934Z,15.00
2019-01-17T02:40:06.254Z,13.10
2019-01-17T02:42:34.246Z,12.67
2019-01-17T02:45:02.223Z,11.97
2019-01-17T02:47:30.182Z,15.80
2019-01-17T02:49:58.157Z,16.27
2019-01-17T02:52:26.112Z,16.10
2019-01-17T02:54:54.109Z,14.80
2019-01-17T02:57:22.164Z,14.93
2019-01-17T02:59:50.133Z,17.87
2019-01-17T03:05:00.231Z,15.20
2019-01-17T03:07:28.192Z,14.40
2019-01-17T03:09:56.172Z,15.20
2019-01-17T03:12:24.110Z,13.70
2019-01-17T03:14:52.087Z,12.75
2019-01-17T03:17:20.129Z,10.10
2019-01-17T03:19:48.141Z,12.35
2019-01-17T03:22:16.093Z,10.30
2019-01-17T03:24:44.043Z,14.50
2019-01-17T03:27:12.040Z,13.70
2019-01-17T03:29:40.005Z,12.63
2019-01-17T03:32:07.951Z,14.90
2019-01-17T03:34:35.968Z,13.20
2019-01-17T03:37:04.014Z,12.50
2019-01-17T03:39:31.979Z,14.03
2019-01-17T03:41:59.980Z,13.33
2019-01-17T03:44:27.953Z,10.67
2019-01-17T03:46:56.018Z,12.00
2019-01-17T03:49:23.975Z,12.57
2019-01-17T03:51:51.940Z,12.00
2019-01-17T03:54:19.968Z,12.07
2019-01-17T03:56:47.978Z,12.40
2019-01-17T03:59:16.036Z,13.77
2019-01-17T04:01:44.013Z,11.70
2019-01-17T04:04:12.017Z,12.50
2019-01-17T04:06:39.939Z,12.20
2019-01-17T04:09:07.953Z,11.60
2019-01-17T04:11:35.893Z,11.20
2019-01-17T04:14:03.954Z,11.30
2019-01-17T04:16:31.908Z,10.70
2019-01-17T04:18:59.902Z,13.30
2019-01-17T04:21:27.846Z,11.53
2019-01-17T04:23:55.824Z,12.83
2019-01-17T04:26:23.801Z,12.87
2019-01-17T04:28:51.752Z,12.97
2019-01-17T04:31:19.738Z,13.37
2019-01-17T04:33:47.803Z,11.97
2019-01-17T04:36:15.759Z,12.40
2019-01-17T04:38:43.779Z,13.40
2019-01-17T04:41:11.699Z,12.10
2019-01-17T04:43:39.659Z,11.63
2019-01-17T04:48:49.744Z,11.40
2019-01-17T04:51:17.739Z,11.30
2019-01-17T04:53:45.672Z,12.03
2019-01-17T04:56:13.640Z,13.73
2019-01-17T04:58:41.632Z,11.53
2019-01-17T05:01:09.687Z,13.50
2019-01-17T05:03:37.692Z,13.60
2019-01-17T05:06:05.622Z,13.60
2019-01-17T05:08:33.670Z,12.47
2019-01-17T05:11:01.615Z,12.83
2019-01-17T05:13:29.524Z,12.17
2019-01-17T05:15:57.522Z,11.43
2019-01-17T05:18:25.480Z,11.83
2019-01-17T05:20:53.450Z,10.70
2019-01-17T05:23:21.402Z,10.90
2019-01-17T05:25:49.396Z,11.33
2019-01-17T05:28:17.368Z,10.40
2019-01-17T05:30:45.335Z,9.40
2019-01-17T05:33:13.273Z,11.50
2019-01-17T05:38:23.380Z,11.87
2019-01-17T05:40:51.357Z,9.33
2019-01-17T05:43:19.423Z,9.30
2019-01-17T05:45:47.361Z,12.33
2019-01-17T05:48:15.344Z,18.63
2019-01-17T05:50:43.331Z,10.10
2019-01-17T05:53:11.380Z,10.90
2019-01-17T05:55:39.339Z,12.27
2019-01-17T05:58:07.328Z,13.60
2019-01-17T06:00:35.309Z,9.17
2019-01-17T06:03:03.285Z,8.20
2019-01-17T06:05:31.246Z,8.20
2019-01-17T06:07:59.204Z,10.13
2019-01-17T06:10:27.185Z,8.27
2019-01-17T06:12:55.231Z,9.60
2019-01-17T06:15:24.113Z,9.63
2019-01-17T06:17:52.095Z,12.60
2019-01-17T06:23:22.671Z,8.43
2019-01-17T06:25:50.603Z,8.63
2019-01-17T06:28:18.583Z,8.23
2019-01-17T06:30:46.646Z,11.00
2019-01-17T06:33:14.632Z,12.80
2019-01-17T06:35:42.584Z,10.10
2019-01-17T06:38:10.573Z,9.83
2019-01-17T06:40:38.523Z,9.30
2019-01-17T06:43:06.491Z,10.40
2019-01-17T06:45:34.458Z,9.40
2019-01-17T06:48:02.429Z,9.60
2019-01-17T06:50:30.411Z,10.00
2019-01-17T06:52:58.371Z,11.87
2019-01-17T06:55:26.356Z,11.03
2019-01-17T06:57:54.298Z,10.67
2019-01-17T07:00:22.270Z,10.27
2019-01-17T07:02:50.252Z,11.20
2019-01-17T07:05:18.216Z,10.03
2019-01-17T07:07:46.188Z,11.30
2019-01-17T07:10:14.893Z,9.77
2019-01-17T07:12:42.846Z,9.23
2019-01-17T07:15:10.809Z,10.47
2019-01-17T07:17:38.765Z,20.00
2019-01-17T07:20:07.390Z,14.57
2019-01-17T07:22:35.336Z,9.70
2019-01-17T07:25:03.321Z,12.00
2019-01-17T07:27:31.292Z,12.17
2019-01-17T07:29:59.259Z,11.40
2019-01-17T07:32:27.268Z,16.03
2019-01-17T07:34:55.250Z,14.20
2019-01-17T07:37:23.246Z,11.10
2019-01-17T07:39:51.251Z,10.43
2019-01-17T07:42:19.170Z,11.23
2019-01-17T07:44:47.146Z,10.90
2019-01-17T07:47:15.136Z,9.63
2019-01-17T07:49:43.091Z,10.10
2019-01-17T07:52:11.067Z,10.67
2019-01-17T07:54:39.016Z,9.87
2019-01-17T07:57:07.007Z,10.17
2019-01-17T07:59:34.991Z,10.20
2019-01-17T08:02:02.929Z,9.83
2019-01-17T08:04:30.888Z,9.87
2019-01-17T08:06:58.793Z,8.60
2019-01-17T08:09:26.727Z,9.80
2019-01-17T08:11:54.681Z,10.60
2019-01-17T08:14:22.790Z,10.17
2019-01-17T08:16:50.765Z,11.70
2019-01-17T08:19:18.734Z,14.20
2019-01-17T08:21:46.703Z,13.67
2019-01-17T08:24:14.645Z,13.00
2019-01-17T08:26:42.638Z,12.97
2019-01-17T08:29:10.640Z,13.17
2019-01-17T08:31:38.543Z,12.33
2019-01-17T08:34:06.440Z,13.00
2019-01-17T08:36:34.360Z,13.93
2019-01-17T08:39:02.280Z,13.30
2019-01-17T08:41:30.231Z,13.90
2019-01-17T08:43:58.307Z,13.27
2019-01-17T08:46:26.299Z,14.13
2019-01-17T08:48:54.259Z,17.43
2019-01-17T08:51:22.240Z,16.20
2019-01-17T08:53:50.176Z,15.27
2019-01-17T08:56:18.182Z,16.17
2019-01-17T08:58:46.118Z,14.93
2019-01-17T09:01:14.110Z,14.53
2019-01-17T09:03:42.068Z,17.37
2019-01-17T09:06:10.046Z,19.37
2019-01-17T09:08:38.032Z,18.20
2019-01-17T09:11:06.079Z,18.10
2019-01-17T09:13:34.127Z,25.50
2019-01-17T09:16:02.108Z,20.20
2019-01-17T09:18:30.101Z,34.10
2019-01-17T09:20:58.150Z,19.37
2019-01-17T09:23:26.033Z,14.00
2019-01-17T09:25:53.986Z,17.27
2019-01-17T09:28:21.987Z,14.97
2019-01-17T09:30:49.934Z,17.20
2019-01-17T09:33:17.916Z,17.33
2019-01-17T09:35:45.885Z,15.23
2019-01-17T09:38:13.840Z,16.90
2019-01-17T09:40:41.794Z,15.67
2019-01-17T09:43:09.775Z,14.10
2019-01-17T09:45:37.789Z,15.90
2019-01-17T09:48:05.852Z,17.00
2019-01-17T09:50:33.877Z,15.77
2019-01-17T09:53:01.881Z,16.20
2019-01-17T09:55:29.830Z,17.50
2019-01-17T09:57:57.798Z,17.20
2019-01-17T10:03:08.780Z,15.10
2019-01-17T10:05:36.817Z,13.87
2019-01-17T10:08:04.814Z,15.90
2019-01-17T10:10:32.782Z,15.23
2019-01-17T10:13:01.074Z,14.50
2019-01-17T10:15:48.005Z,11.53
2019-01-17T10:18:35.054Z,12.67
2019-01-17T10:21:22.050Z,15.97
2019-01-17T10:24:09.098Z,14.27
2019-01-17T10:26:40.305Z,10.57
2019-01-17T10:29:21.915Z,12.70
2019-01-17T10:32:09.016Z,14.77
2019-01-17T10:34:55.954Z,13.93
2019-01-17T10:37:43.104Z,12.73
2019-01-17T10:40:30.050Z,13.17
2019-01-17T10:43:02.731Z,12.30
2019-01-17T10:45:49.768Z,14.03
2019-01-17T10:48:36.797Z,10.20
2019-01-17T10:51:23.732Z,10.70
2019-01-17T10:54:10.824Z,9.80
2019-01-17T10:56:57.771Z,9.00
2019-01-17T10:59:44.789Z,9.27
2019-01-17T11:02:31.805Z,10.10
2019-01-17T11:05:18.787Z,11.23
2019-01-17T11:08:05.936Z,15.03
2019-01-17T11:10:52.864Z,13.37
2019-01-17T11:13:39.936Z,13.27
2019-01-17T11:16:26.959Z,10.50
2019-01-17T11:19:13.927Z,12.50
2019-01-17T11:21:47.948Z,17.60
2019-01-17T11:24:34.888Z,14.17
2019-01-17T11:27:21.831Z,11.03
2019-01-17T11:30:08.831Z,11.60
2019-01-17T11:32:55.854Z,11.13
2019-01-17T11:35:42.841Z,10.90
2019-01-17T11:38:29.780Z,10.67
2019-01-17T11:44:00.016Z,10.17
2019-01-17T11:46:47.024Z,9.80
2019-01-17T11:49:34.237Z,11.67
2019-01-17T11:52:21.151Z,10.50
2019-01-17T11:55:08.168Z,11.30
2019-01-17T11:57:55.094Z,10.13
2019-01-17T12:00:42.095Z,10.13
2019-01-17T12:03:29.039Z,10.17
2019-01-17T12:05:56.971Z,11.13
2019-01-17T12:08:24.904Z,10.50
2019-01-17T12:10:52.858Z,10.37
2019-01-17T12:13:20.772Z,11.70
2019-01-17T12:15:48.723Z,11.33
2019-01-17T12:18:16.758Z,10.53
2019-01-17T12:20:45.049Z,11.30
2019-01-17T12:23:13.013Z,11.10
2019-01-17T12:25:40.980Z,11.00
2019-01-17T12:28:08.954Z,10.80
2019-01-17T12:30:36.909Z,11.53
2019-01-17T12:33:04.902Z,11.43
2019-01-17T12:35:34.181Z,11.93
2019-01-17T12:38:02.472Z,10.60
2019-01-17T12:40:30.503Z,11.13
2019-01-17T12:42:58.539Z,10.53
2019-01-17T12:45:26.845Z,11.10
2019-01-17T12:47:54.779Z,11.80
2019-01-17T12:50:22.732Z,10.60
2019-01-17T12:52:50.687Z,11.27
2019-01-17T12:55:18.664Z,10.47
2019-01-17T12:57:46.603Z,10.07
2019-01-17T13:00:33.539Z,11.60
2019-01-17T13:03:01.443Z,18.10
2019-01-17T13:05:29.353Z,15.67
2019-01-17T13:07:57.250Z,12.13
2019-01-17T13:10:26.668Z,10.80
2019-01-17T13:12:56.525Z,14.00
2019-01-17T13:15:25.823Z,14.53
2019-01-17T13:17:55.688Z,11.80
2019-01-17T13:20:25.191Z,12.60
2019-01-17T13:22:54.853Z,11.67
2019-01-17T13:25:22.862Z,10.03
2019-01-17T13:27:50.811Z,11.60
2019-01-17T13:30:19.845Z,10.23
2019-01-17T13:32:47.824Z,11.50
2019-01-17T13:35:16.263Z,10.63
2019-01-17T13:37:44.229Z,10.90
2019-01-17T13:43:16.245Z,12.00
2019-01-17T13:45:44.189Z,11.17
2019-01-17T13:48:12.163Z,11.13
2019-01-17T13:50:40.119Z,10.90
2019-01-17T13:53:08.145Z,11.40
2019-01-17T13:55:36.254Z,10.57
2019-01-17T13:58:04.185Z,11.67
2019-01-17T14:00:32.195Z,10.60
2019-01-17T14:03:00.185Z,11.40
2019-01-17T14:05:28.140Z,11.80
2019-01-17T14:07:56.113Z,11.90
2019-01-17T14:10:24.097Z,12.47
2019-01-17T14:12:52.056Z,11.50
2019-01-17T14:18:27.857Z,11.87
2019-01-17T14:20:53.411Z,10.60
2019-01-17T14:23:21.319Z,10.73
2019-01-17T14:25:49.278Z,11.13
2019-01-17T14:28:17.268Z,10.10
2019-01-17T14:33:32.397Z,9.60
2019-01-17T14:36:00.283Z,9.40
2019-01-17T14:38:28.176Z,9.40
2019-01-17T14:40:56.136Z,9.03
2019-01-17T14:43:24.109Z,10.30
2019-01-17T14:45:52.180Z,9.50
2019-01-17T14:48:20.127Z,10.80
2019-01-17T14:50:48.018Z,10.43
2019-01-17T14:53:15.983Z,8.43
2019-01-17T14:55:43.955Z,9.30
2019-01-17T14:58:11.944Z,9.10
2019-01-17T15:00:39.873Z,9.57
2019-01-17T15:03:07.785Z,9.43
2019-01-17T15:05:35.707Z,11.07
2019-01-17T15:08:03.794Z,8.20
2019-01-17T15:10:33.419Z,7.47
2019-01-17T15:13:01.345Z,13.30
2019-01-17T15:15:29.202Z,8.50
2019-01-17T15:17:57.134Z,12.80
2019-01-17T15:26:09.857Z,10.37
2019-01-17T15:28:37.827Z,9.50
2019-01-17T15:31:05.791Z,9.83
2019-01-17T15:33:33.775Z,8.43
2019-01-17T15:36:01.736Z,7.27
2019-01-17T15:38:29.695Z,7.83
2019-01-17T15:40:57.679Z,7.97
2019-01-17T15:46:08.372Z,6.83
2019-01-17T15:48:36.443Z,8.13
2019-01-17T15:51:04.391Z,8.07
2019-01-17T15:53:32.374Z,7.57
2019-01-17T15:56:00.327Z,7.10
2019-01-17T15:58:28.315Z,6.80
2019-01-17T16:00:56.268Z,7.40
2019-01-17T16:03:24.222Z,7.50
2019-01-17T16:05:52.159Z,7.10
2019-01-17T16:08:20.058Z,6.40
2019-01-17T16:10:47.951Z,6.30
2019-01-17T16:13:16.055Z,6.70
2019-01-17T16:15:44.099Z,7.70
2019-01-17T16:18:12.074Z,6.00
2019-01-17T16:20:40.028Z,7.20
2019-01-17T16:23:08.016Z,6.87
2019-01-17T16:25:35.965Z,6.17
2019-01-17T16:28:03.952Z,6.20
2019-01-17T16:30:32.517Z,6.90
2019-01-17T16:33:00.464Z,7.00
2019-01-17T16:35:28.459Z,7.07
2019-01-17T16:37:56.429Z,7.07
2019-01-17T16:40:24.514Z,6.83
2019-01-17T16:42:52.472Z,7.07
2019-01-17T16:48:02.476Z,6.90
2019-01-17T16:50:30.405Z,7.23
2019-01-17T16:52:58.359Z,6.80
2019-01-17T16:55:26.369Z,7.00
2019-01-17T16:57:54.339Z,6.97
2019-01-17T17:00:26.172Z,7.03
2019-01-17T17:02:54.186Z,6.90
2019-01-17T17:05:22.101Z,7.40
2019-01-17T17:07:50.072Z,7.93
2019-01-17T17:10:18.029Z,7.67
2019-01-17T17:12:46.067Z,8.23
2019-01-17T17:15:34.640Z,7.30
2019-01-17T17:18:02.588Z,7.70
2019-01-17T17:20:30.605Z,6.57
2019-01-17T17:22:58.556Z,8.23
2019-01-17T17:25:26.598Z,7.33
2019-01-17T17:27:55.709Z,7.50
2019-01-17T17:30:25.269Z,8.30
2019-01-17T17:32:53.227Z,7.70
2019-01-17T17:35:21.165Z,7.30
2019-01-17T17:37:49.035Z,7.53
2019-01-17T17:40:21.090Z,7.13
2019-01-17T17:42:49.187Z,6.70
2019-01-17T17:45:17.181Z,6.80
2019-01-17T17:47:45.209Z,7.40
2019-01-17T17:52:57.357Z,10.90
2019-01-17T17:55:25.297Z,9.53
2019-01-17T17:57:53.312Z,9.80
2019-01-17T18:00:41.171Z,11.10
2019-01-17T18:03:09.281Z,10.97
2019-01-17T18:05:37.308Z,10.40
2019-01-17T18:08:05.355Z,9.33
2019-01-17T18:10:33.374Z,10.53
2019-01-17T18:13:01.380Z,10.90
2019-01-17T18:15:29.347Z,11.17
2019-01-17T18:17:57.346Z,9.90
2019-01-17T18:20:25.292Z,10.63
2019-01-17T18:22:53.230Z,11.00
2019-01-17T18:25:21.112Z,9.27
2019-01-17T18:27:49.134Z,9.50
2019-01-17T18:30:20.867Z,10.60
2019-01-17T18:32:48.834Z,10.03
2019-01-17T18:35:16.784Z,10.37
2019-01-17T18:37:44.790Z,10.40
2019-01-17T18:40:33.711Z,10.47
2019-01-17T18:43:01.960Z,10.80
2019-01-17T18:45:48.866Z,10.97
2019-01-17T18:50:55.646Z,11.50
2019-01-17T18:53:23.573Z,10.30
2019-01-17T18:56:10.519Z,9.70
2019-01-17T18:58:38.586Z,9.40
2019-01-17T19:01:07.486Z,10.23
2019-01-17T19:03:35.657Z,10.57
2019-01-17T19:08:52.256Z,15.40
2019-01-17T19:11:20.189Z,17.00
2019-01-17T19:13:48.198Z,16.37
2019-01-17T19:16:30.308Z,14.97
2019-01-17T19:18:58.317Z,15.37
2019-01-17T19:21:26.313Z,15.27
2019-01-17T19:23:54.263Z,17.07
2019-01-17T19:26:22.262Z,15.10
2019-01-17T19:28:50.231Z,16.13
2019-01-17T19:31:18.277Z,15.53
2019-01-17T19:33:46.290Z,15.17
2019-01-17T19:36:14.531Z,17.83
2019-01-17T19:38:42.515Z,16.90
2019-01-17T19:41:10.468Z,14.40
2019-01-17T19:46:20.542Z,14.73
2019-01-17T19:48:48.566Z,13.60
2019-01-17T19:51:16.495Z,15.70
2019-01-17T19:53:44.547Z,13.70
2019-01-17T19:56:12.498Z,15.03
2019-01-17T19:58:40.395Z,14.50
2019-01-17T20:01:08.577Z,12.97
2019-01-17T20:03:36.657Z,13.20
2019-01-17T20:06:25.111Z,14.20
2019-01-17T20:08:53.074Z,14.73
2019-01-17T20:11:20.996Z,13.03
2019-01-17T20:13:49.247Z,13.53
2019-01-17T20:16:17.172Z,12.97
2019-01-17T20:18:45.158Z,13.97
2019-01-17T20:21:13.184Z,14.13
2019-01-17T20:23:41.463Z,17.13
2019-01-17T20:26:09.441Z,20.40
2019-01-17T20:28:37.403Z,15.80
2019-01-17T20:31:05.575Z,14.23
2019-01-17T20:36:16.187Z,15.40
2019-01-17T20:38:44.165Z,14.80
2019-01-17T20:41:12.090Z,13.57
2019-01-17T20:43:40.072Z,14.53
2019-01-17T20:46:08.074Z,14.50
2019-01-17T20:48:36.149Z,13.70
2019-01-17T20:51:04.109Z,15.30
2019-01-17T20:53:32.180Z,14.50
2019-01-17T20:56:00.118Z,26.73
2019-01-17T20:58:28.120Z,18.77
2019-01-17T21:01:15.237Z,13.93
2019-01-17T21:03:43.233Z,14.20
2019-01-17T21:06:11.267Z,15.93
2019-01-17T21:08:39.216Z,15.37
2019-01-17T21:11:07.223Z,17.13
2019-01-17T21:13:35.146Z,14.80
2019-01-17T21:16:03.439Z,15.27
2019-01-17T21:21:11.209Z,14.33
2019-01-17T21:23:39.216Z,16.50
2019-01-17T21:26:07.201Z,24.13
2019-01-17T21:28:35.188Z,53.10
2019-01-17T21:31:03.136Z,17.80
2019-01-17T21:33:31.109Z,15.77
2019-01-17T21:35:59.067Z,17.43
2019-01-17T21:38:27.050Z,15.03
2019-01-17T21:40:55.021Z,13.57
2019-01-17T21:43:22.958Z,15.13
2019-01-17T21:45:50.861Z,14.60
2019-01-17T21:48:18.806Z,13.10
2019-01-17T21:50:46.790Z,12.37
2019-01-17T21:53:14.763Z,9.47
2019-01-17T21:55:42.760Z,11.77
2019-01-17T21:58:10.690Z,14.60
2019-01-17T22:00:38.683Z,15.17
2019-01-17T22:03:06.669Z,19.20
2019-01-17T22:05:34.830Z,16.00
2019-01-17T22:08:02.777Z,16.03
2019-01-17T22:10:30.723Z,13.17
2019-01-17T22:12:58.719Z,14.70
2019-01-17T22:15:26.772Z,14.47
2019-01-17T22:17:54.912Z,14.47
2019-01-17T22:20:23.048Z,12.60
2019-01-17T22:25:53.631Z,12.97
2019-01-17T22:28:21.536Z,12.67
2019-01-17T22:30:49.514Z,8.30
2019-01-17T22:33:17.486Z,6.60
2019-01-17T22:35:45.436Z,6.90
2019-01-17T22:38:13.431Z,6.73
2019-01-17T22:40:41.442Z,7.63
2019-01-17T22:43:09.476Z,6.50
2019-01-17T22:45:37.457Z,6.53
2019-01-17T22:48:05.380Z,7.60
2019-01-17T22:50:33.271Z,6.90
2019-01-17T22:53:01.217Z,7.00
2019-01-17T22:55:29.238Z,6.60
2019-01-17T22:57:57.165Z,7.90
2019-01-17T23:00:49.128Z,7.53
2019-01-17T23:03:17.267Z,7.43
2019-01-17T23:05:45.324Z,7.20
2019-01-17T23:08:13.218Z,7.07
2019-01-17T23:10:41.175Z,6.77
2019-01-17T23:13:09.142Z,6.20
2019-01-17T23:15:37.431Z,7.47
2019-01-17T23:20:52.567Z,6.83
2019-01-17T23:23:20.478Z,6.40
2019-01-17T23:25:48.438Z,7.30
2019-01-17T23:28:16.461Z,6.73
2019-01-17T23:30:44.388Z,6.90
2019-01-17T23:33:12.369Z,7.13
2019-01-17T23:35:40.340Z,7.23
2019-01-17T23:38:08.316Z,7.53
2019-01-17T23:40:36.352Z,7.10
2019-01-17T23:43:04.323Z,7.40
2019-01-17T23:45:32.320Z,7.80
2019-01-17T23:48:00.282Z,6.70
2019-01-17T23:50:28.251Z,6.87
2019-01-17T23:52:56.227Z,6.60
2019-01-17T23:55:24.203Z,7.00
2019-01-17T23:57:52.145Z,6.33
